createdAt,value
2017-10-02T00:00:47.642Z,94.50
2017-10-02T00:01:51.066Z,94.60
2017-10-02T00:02:53.909Z,94.20
2017-10-02T00:03:56.433Z,94.70
2017-10-02T00:04:58.930Z,94.90
2017-10-02T00:06:01.439Z,94.10
2017-10-02T00:07:04.063Z,94.70
2017-10-02T00:08:06.572Z,95.40
2017-10-02T00:09:09.051Z,93.90
2017-10-02T00:10:11.596Z,94.40
2017-10-02T00:11:14.165Z,95.40
2017-10-02T00:12:17.956Z,94.40
2017-10-02T00:13:21.042Z,94.30
2017-10-02T00:14:24.136Z,94.40
2017-10-02T00:15:27.162Z,94.50
2017-10-02T00:16:29.841Z,94.50
2017-10-02T00:17:32.389Z,95.00
2017-10-02T00:18:34.918Z,95.10
2017-10-02T00:19:42.184Z,95.20
2017-10-02T00:20:45.423Z,96.20
2017-10-02T00:21:48.064Z,95.20
2017-10-02T00:22:50.602Z,95.80
2017-10-02T00:23:53.085Z,95.00
2017-10-02T00:24:56.321Z,94.80
2017-10-02T00:25:58.874Z,95.50
2017-10-02T00:27:01.437Z,96.00
2017-10-02T00:28:03.990Z,95.30
2017-10-02T00:29:06.720Z,94.60
2017-10-02T00:30:09.244Z,95.10
2017-10-02T00:31:11.904Z,94.30
2017-10-02T00:32:18.867Z,95.40
2017-10-02T00:33:22.397Z,94.40
2017-10-02T00:34:24.935Z,96.10
2017-10-02T00:35:28.073Z,94.80
2017-10-02T00:36:30.578Z,95.40
2017-10-02T00:37:33.815Z,95.40
2017-10-02T00:38:36.293Z,95.00
2017-10-02T00:39:38.787Z,94.80
2017-10-02T00:40:41.264Z,94.60
2017-10-02T00:41:43.775Z,95.60
2017-10-02T00:42:46.372Z,94.10
2017-10-02T00:43:49.628Z,95.60
2017-10-02T00:44:52.129Z,95.60
2017-10-02T00:45:54.648Z,94.70
2017-10-02T00:46:57.192Z,95.50
2017-10-02T00:47:59.696Z,95.00
2017-10-02T00:49:02.173Z,95.30
2017-10-02T00:50:05.490Z,95.70
2017-10-02T00:51:07.978Z,95.40
2017-10-02T00:52:10.468Z,95.30
2017-10-02T00:53:12.951Z,95.00
2017-10-02T00:54:16.270Z,94.80
2017-10-02T00:55:18.764Z,94.80
2017-10-02T00:56:21.289Z,93.90
2017-10-02T00:57:25.304Z,94.70
2017-10-02T00:58:27.839Z,94.80
2017-10-02T00:59:30.325Z,94.60
2017-10-02T01:00:33.575Z,95.40
2017-10-02T01:01:36.239Z,95.10
2017-10-02T01:02:38.715Z,95.20
2017-10-02T01:03:41.966Z,94.70
2017-10-02T01:04:44.456Z,95.00
2017-10-02T01:05:46.961Z,94.80
2017-10-02T01:06:50.558Z,94.70
2017-10-02T01:07:53.061Z,94.80
2017-10-02T01:08:55.586Z,94.10
2017-10-02T01:09:58.082Z,93.80
2017-10-02T01:11:04.361Z,95.10
2017-10-02T01:12:06.892Z,94.30
2017-10-02T01:13:10.411Z,93.90
2017-10-02T01:14:12.879Z,93.90
2017-10-02T01:15:15.405Z,94.00
2017-10-02T01:16:18.933Z,94.30
2017-10-02T01:17:21.459Z,94.90
2017-10-02T01:18:26.389Z,94.30
2017-10-02T01:19:29.924Z,94.30
2017-10-02T01:20:33.348Z,93.90
2017-10-02T01:21:35.941Z,93.90
2017-10-02T01:22:38.440Z,95.10
2017-10-02T01:23:40.962Z,94.90
2017-10-02T01:24:43.433Z,95.10
2017-10-02T01:25:45.910Z,94.30
2017-10-02T01:26:48.401Z,94.90
2017-10-02T01:27:50.908Z,94.00
2017-10-02T01:28:53.417Z,94.60
2017-10-02T01:29:55.892Z,93.70
2017-10-02T01:30:58.368Z,95.10
2017-10-02T01:32:00.895Z,94.20
2017-10-02T01:33:03.643Z,94.20
2017-10-02T01:34:06.152Z,94.30
2017-10-02T01:35:09.242Z,94.70
2017-10-02T01:36:11.876Z,94.30
2017-10-02T01:37:14.523Z,94.10
2017-10-02T01:38:17.090Z,94.20
2017-10-02T01:39:19.588Z,94.30
2017-10-02T01:40:22.063Z,94.40
2017-10-02T01:41:24.546Z,94.40
2017-10-02T01:42:27.832Z,94.30
2017-10-02T01:43:30.644Z,94.30
2017-10-02T01:44:33.252Z,93.80
2017-10-02T01:45:35.724Z,93.60
2017-10-02T01:46:38.267Z,93.30
2017-10-02T01:47:40.742Z,93.30
2017-10-02T01:48:43.270Z,94.00
2017-10-02T01:49:45.739Z,93.80
2017-10-02T01:50:48.232Z,93.20
2017-10-02T01:51:50.736Z,93.40
2017-10-02T01:52:54.014Z,93.80
2017-10-02T01:53:57.342Z,94.30
2017-10-02T01:54:59.843Z,93.90
2017-10-02T01:56:02.364Z,93.80
2017-10-02T01:57:05.278Z,94.40
2017-10-02T01:58:07.785Z,94.40
2017-10-02T01:59:11.041Z,94.30
2017-10-02T02:00:13.521Z,94.00
2017-10-02T02:01:16.144Z,94.90
2017-10-02T02:02:18.637Z,94.80
2017-10-02T02:03:21.106Z,94.50
2017-10-02T02:04:23.582Z,95.20
2017-10-02T02:05:26.067Z,95.40
2017-10-02T02:06:29.347Z,95.80
2017-10-02T02:07:32.774Z,95.50
2017-10-02T02:08:35.327Z,95.50
2017-10-02T02:09:37.858Z,96.10
2017-10-02T02:10:41.110Z,96.50
2017-10-02T02:11:43.707Z,96.20
2017-10-02T02:12:46.338Z,96.30
2017-10-02T02:13:48.843Z,96.40
2017-10-02T02:14:51.313Z,96.40
2017-10-02T02:15:56.641Z,96.50
2017-10-02T02:17:00.490Z,96.80
2017-10-02T02:18:03.267Z,96.80
2017-10-02T02:19:06.669Z,96.60
2017-10-02T02:20:09.174Z,97.00
2017-10-02T02:21:12.413Z,97.20
2017-10-02T02:22:15.563Z,97.00
2017-10-02T02:23:18.043Z,96.90
2017-10-02T02:24:20.575Z,97.30
2017-10-02T02:25:23.822Z,97.10
2017-10-02T02:26:26.320Z,97.10
2017-10-02T02:27:29.563Z,96.90
2017-10-02T02:28:32.112Z,96.90
2017-10-02T02:29:34.606Z,96.70
2017-10-02T02:30:37.103Z,97.30
2017-10-02T02:31:40.355Z,97.70
2017-10-02T02:32:42.850Z,97.60
2017-10-02T02:33:46.163Z,98.00
2017-10-02T02:34:48.688Z,98.00
2017-10-02T02:35:51.160Z,98.30
2017-10-02T02:36:54.479Z,98.60
2017-10-02T02:37:56.955Z,98.60
2017-10-02T02:38:59.503Z,98.60
2017-10-02T02:40:01.985Z,98.60
2017-10-02T02:41:04.471Z,98.60
2017-10-02T02:42:06.979Z,99.20
2017-10-02T02:43:10.319Z,99.30
2017-10-02T02:44:12.796Z,99.30
2017-10-02T02:45:15.283Z,99.60
2017-10-02T02:46:18.602Z,99.70
2017-10-02T02:47:22.115Z,99.90
2017-10-02T02:48:24.605Z,99.90
2017-10-02T02:49:27.533Z,99.80
2017-10-02T02:50:30.098Z,99.60
2017-10-02T02:51:32.635Z,99.20
2017-10-02T02:52:35.995Z,99.50
2017-10-02T02:53:39.476Z,99.50
2017-10-02T02:54:41.963Z,99.30
2017-10-02T02:55:44.448Z,99.10
2017-10-02T02:56:47.735Z,99.80
2017-10-02T02:57:50.989Z,99.70
2017-10-02T02:58:54.223Z,99.70
2017-10-02T02:59:56.721Z,99.70
2017-10-02T03:00:59.203Z,99.90
2017-10-02T03:02:01.687Z,99.70
2017-10-02T03:03:04.295Z,99.60
2017-10-02T03:04:06.827Z,99.60
2017-10-02T03:05:09.303Z,99.60
2017-10-02T03:06:12.547Z,99.90
2017-10-02T03:07:15.045Z,99.90
2017-10-02T03:08:18.352Z,99.90
2017-10-02T03:09:20.888Z,99.90
2017-10-02T03:10:24.719Z,99.90
2017-10-02T03:11:27.220Z,99.90
2017-10-02T03:12:29.683Z,99.90
2017-10-02T03:13:32.192Z,99.90
2017-10-02T03:14:35.501Z,99.90
2017-10-02T03:15:38.010Z,99.90
2017-10-02T03:16:41.765Z,99.90
2017-10-02T03:17:44.333Z,99.80
2017-10-02T03:18:46.818Z,99.90
2017-10-02T03:19:49.435Z,99.90
2017-10-02T03:20:53.703Z,99.90
2017-10-02T03:21:57.006Z,99.90
2017-10-02T03:22:59.620Z,99.90
2017-10-02T03:24:02.190Z,99.90
2017-10-02T03:25:04.755Z,99.90
2017-10-02T03:26:07.255Z,99.90
2017-10-02T03:27:11.836Z,99.90
2017-10-02T03:28:15.222Z,99.90
2017-10-02T03:29:17.790Z,99.90
2017-10-02T03:30:20.274Z,99.90
2017-10-02T03:31:22.842Z,99.90
2017-10-02T03:32:25.625Z,99.90
2017-10-02T03:33:29.115Z,99.90
2017-10-02T03:34:31.611Z,99.90
2017-10-02T03:35:34.111Z,99.90
2017-10-02T03:36:36.612Z,99.90
2017-10-02T03:37:39.122Z,99.90
2017-10-02T03:38:42.371Z,99.90
2017-10-02T03:39:44.846Z,99.90
2017-10-02T03:40:47.402Z,99.90
2017-10-02T03:41:50.010Z,99.90
2017-10-02T03:42:53.263Z,99.90
2017-10-02T03:43:55.780Z,99.90
2017-10-02T03:44:58.412Z,99.90
2017-10-02T03:46:00.911Z,99.90
2017-10-02T03:47:03.379Z,99.90
2017-10-02T03:48:05.870Z,99.90
2017-10-02T03:49:08.428Z,99.90
2017-10-02T03:50:10.902Z,99.90
2017-10-02T03:51:13.395Z,99.90
2017-10-02T03:52:15.875Z,99.90
2017-10-02T03:53:18.342Z,99.90
2017-10-02T03:54:22.069Z,99.90
2017-10-02T03:55:24.563Z,99.90
2017-10-02T03:56:27.052Z,99.90
2017-10-02T03:57:29.514Z,99.90
2017-10-02T03:58:32.000Z,99.90
2017-10-02T03:59:35.283Z,99.90
2017-10-02T04:00:38.521Z,99.90
2017-10-02T04:01:41.006Z,99.90
2017-10-02T04:02:43.484Z,99.90
2017-10-02T04:03:45.959Z,99.90
2017-10-02T04:04:50.395Z,99.90
2017-10-02T04:05:52.880Z,99.90
2017-10-02T04:06:55.359Z,99.90
2017-10-02T04:07:57.841Z,99.90
2017-10-02T04:09:00.357Z,99.90
2017-10-02T04:10:02.921Z,99.90
2017-10-02T04:11:05.421Z,99.90
2017-10-02T04:12:08.013Z,99.90
2017-10-02T04:13:10.500Z,99.90
2017-10-02T04:14:13.737Z,99.90
2017-10-02T04:15:16.322Z,99.90
2017-10-02T04:16:18.838Z,99.90
2017-10-02T04:17:21.321Z,99.90
2017-10-02T04:18:23.800Z,99.90
2017-10-02T04:19:26.290Z,99.90
2017-10-02T04:20:28.781Z,99.90
2017-10-02T04:21:32.039Z,99.90
2017-10-02T04:22:34.670Z,99.90
2017-10-02T04:23:37.687Z,99.90
2017-10-02T04:24:40.195Z,99.90
2017-10-02T04:25:42.692Z,99.90
2017-10-02T04:26:45.167Z,99.90
2017-10-02T04:27:47.698Z,99.90
2017-10-02T04:28:50.260Z,99.90
2017-10-02T04:29:52.756Z,99.90
2017-10-02T04:30:55.226Z,99.90
2017-10-02T04:31:57.760Z,99.90
2017-10-02T04:33:00.326Z,99.90
2017-10-02T04:34:02.894Z,99.90
2017-10-02T04:35:05.374Z,99.90
2017-10-02T04:36:08.011Z,99.90
2017-10-02T04:37:11.276Z,99.90
2017-10-02T04:38:13.978Z,99.90
2017-10-02T04:39:16.473Z,99.90
2017-10-02T04:40:18.970Z,99.90
2017-10-02T04:41:21.556Z,99.90
2017-10-02T04:42:24.826Z,99.90
2017-10-02T04:43:27.675Z,99.90
2017-10-02T04:44:30.206Z,99.90
2017-10-02T04:45:32.772Z,99.90
2017-10-02T04:46:35.285Z,99.90
2017-10-02T04:47:37.906Z,99.90
2017-10-02T04:48:40.473Z,99.90
2017-10-02T04:49:43.447Z,99.90
2017-10-02T04:50:46.424Z,99.90
2017-10-02T04:51:48.899Z,99.90
2017-10-02T04:52:51.383Z,99.90
2017-10-02T04:53:53.863Z,99.90
2017-10-02T04:54:56.345Z,99.90
2017-10-02T04:56:00.762Z,99.90
2017-10-02T04:57:03.566Z,99.90
2017-10-02T04:58:06.238Z,99.90
2017-10-02T04:59:08.716Z,99.90
2017-10-02T05:00:11.269Z,99.90
2017-10-02T05:01:13.775Z,99.90
2017-10-02T05:02:16.268Z,99.90
2017-10-02T05:03:19.507Z,99.90
2017-10-02T05:04:22.092Z,99.90
2017-10-02T05:05:24.579Z,99.90
2017-10-02T05:06:27.897Z,99.90
2017-10-02T05:07:30.488Z,99.90
2017-10-02T05:08:33.075Z,99.90
2017-10-02T05:09:35.601Z,99.90
2017-10-02T05:10:38.290Z,99.90
2017-10-02T05:11:40.831Z,99.90
2017-10-02T05:12:43.319Z,99.90
2017-10-02T05:13:45.863Z,99.90
2017-10-02T05:14:48.340Z,99.90
2017-10-02T05:15:50.829Z,99.90
2017-10-02T05:16:53.316Z,99.90
2017-10-02T05:17:55.887Z,99.90
2017-10-02T05:18:58.492Z,99.90
2017-10-02T05:20:01.062Z,99.90
2017-10-02T05:21:07.695Z,99.90
2017-10-02T05:22:10.948Z,99.90
2017-10-02T05:23:13.419Z,99.90
2017-10-02T05:24:15.934Z,99.90
2017-10-02T05:25:18.399Z,99.90
2017-10-02T05:26:20.905Z,99.90
2017-10-02T05:27:23.430Z,99.90
2017-10-02T05:28:26.000Z,99.90
2017-10-02T05:29:28.492Z,99.90
2017-10-02T05:30:30.970Z,99.90
2017-10-02T05:31:33.501Z,99.90
2017-10-02T05:32:35.992Z,99.90
2017-10-02T05:33:38.551Z,99.90
2017-10-02T05:34:41.066Z,99.90
2017-10-02T05:35:44.380Z,99.90
2017-10-02T05:36:46.859Z,99.90
2017-10-02T05:37:49.330Z,99.90
2017-10-02T05:38:51.975Z,99.90
2017-10-02T05:39:54.541Z,99.90
2017-10-02T05:40:57.071Z,99.90
2017-10-02T05:41:59.548Z,99.90
2017-10-02T05:43:02.783Z,99.90
2017-10-02T05:44:05.276Z,99.90
2017-10-02T05:45:08.533Z,99.90
2017-10-02T05:46:11.070Z,99.90
2017-10-02T05:47:13.588Z,99.90
2017-10-02T05:48:16.068Z,99.90
2017-10-02T05:49:19.341Z,99.90
2017-10-02T05:50:21.952Z,99.90
2017-10-02T05:51:24.491Z,99.90
2017-10-02T05:52:27.754Z,99.90
2017-10-02T05:53:30.229Z,99.90
2017-10-02T05:54:32.714Z,99.90
2017-10-02T05:55:35.967Z,99.90
2017-10-02T05:56:39.060Z,99.90
2017-10-02T05:57:42.299Z,99.90
2017-10-02T05:58:44.792Z,99.90
2017-10-02T05:59:47.275Z,99.90
2017-10-02T06:00:50.592Z,99.90
2017-10-02T06:01:54.339Z,99.90
2017-10-02T06:03:01.563Z,99.90
2017-10-02T06:04:04.051Z,99.90
2017-10-02T06:05:06.560Z,99.90
2017-10-02T06:06:09.061Z,99.90
2017-10-02T06:07:11.557Z,99.90
2017-10-02T06:08:14.089Z,99.90
2017-10-02T06:09:16.574Z,99.90
2017-10-02T06:10:19.065Z,99.90
2017-10-02T06:11:21.546Z,99.90
2017-10-02T06:12:25.007Z,99.90
2017-10-02T06:13:27.543Z,99.90
2017-10-02T06:14:30.044Z,99.90
2017-10-02T06:15:32.567Z,99.90
2017-10-02T06:16:35.041Z,99.90
2017-10-02T06:17:37.610Z,99.90
2017-10-02T06:18:40.582Z,99.90
2017-10-02T06:19:43.065Z,99.90
2017-10-02T06:20:46.429Z,99.90
2017-10-02T06:21:48.948Z,99.90
2017-10-02T06:22:51.647Z,99.90
2017-10-02T06:23:55.330Z,99.90
2017-10-02T06:24:58.592Z,99.90
2017-10-02T06:26:02.576Z,99.90
2017-10-02T06:27:05.059Z,99.90
2017-10-02T06:28:07.998Z,99.90
2017-10-02T06:29:10.630Z,99.90
2017-10-02T06:30:14.989Z,99.90
2017-10-02T06:31:17.537Z,99.90
2017-10-02T06:32:20.032Z,99.90
2017-10-02T06:33:23.437Z,99.90
2017-10-02T06:34:26.044Z,99.90
2017-10-02T06:35:29.591Z,99.90
2017-10-02T06:36:32.076Z,99.90
2017-10-02T06:37:35.947Z,99.90
2017-10-02T06:38:38.691Z,99.90
2017-10-02T06:39:41.172Z,99.90
2017-10-02T06:40:43.674Z,99.90
2017-10-02T06:41:51.489Z,99.90
2017-10-02T06:42:54.053Z,99.90
2017-10-02T06:43:56.560Z,99.90
2017-10-02T06:44:59.124Z,99.90
2017-10-02T06:46:01.654Z,99.90
2017-10-02T06:47:04.205Z,99.90
2017-10-02T06:48:07.451Z,99.90
2017-10-02T06:49:09.941Z,99.90
2017-10-02T06:50:12.476Z,99.90
2017-10-02T06:51:15.004Z,99.90
2017-10-02T06:52:18.254Z,99.90
2017-10-02T06:53:20.729Z,99.90
2017-10-02T06:54:25.063Z,99.90
2017-10-02T06:55:27.695Z,99.90
2017-10-02T06:56:31.832Z,99.90
2017-10-02T06:57:34.327Z,99.90
2017-10-02T06:58:37.819Z,99.90
2017-10-02T06:59:40.293Z,99.90
2017-10-02T07:00:42.904Z,99.90
2017-10-02T07:01:46.185Z,99.90
2017-10-02T07:02:49.527Z,99.90
2017-10-02T07:03:52.023Z,99.90
2017-10-02T07:04:55.266Z,99.90
2017-10-02T07:05:57.769Z,99.90
2017-10-02T07:07:00.274Z,99.90
2017-10-02T07:08:02.760Z,99.90
2017-10-02T07:09:06.265Z,99.90
2017-10-02T07:10:08.794Z,99.90
2017-10-02T07:11:16.516Z,99.90
2017-10-02T07:12:19.045Z,99.90
2017-10-02T07:13:22.027Z,99.90
2017-10-02T07:14:24.544Z,99.90
2017-10-02T07:15:27.050Z,99.90
2017-10-02T07:16:29.591Z,99.90
2017-10-02T07:17:32.910Z,99.90
2017-10-02T07:18:35.573Z,99.90
2017-10-02T07:19:38.207Z,99.90
2017-10-02T07:20:41.448Z,99.90
2017-10-02T07:21:43.952Z,99.90
2017-10-02T07:22:46.568Z,99.90
2017-10-02T07:23:49.083Z,99.90
2017-10-02T07:24:51.588Z,99.90
2017-10-02T07:25:54.119Z,99.90
2017-10-02T07:26:57.368Z,99.90
2017-10-02T07:27:59.894Z,99.90
2017-10-02T07:29:03.190Z,99.90
2017-10-02T07:30:05.754Z,99.90
2017-10-02T07:31:08.245Z,99.90
2017-10-02T07:32:11.916Z,99.90
2017-10-02T07:33:14.387Z,99.90
2017-10-02T07:34:16.883Z,99.90
2017-10-02T07:35:19.463Z,99.90
2017-10-02T07:36:22.059Z,99.90
2017-10-02T07:37:24.549Z,99.90
2017-10-02T07:38:27.064Z,99.90
2017-10-02T07:39:29.564Z,99.90
2017-10-02T07:40:33.574Z,99.90
2017-10-02T07:41:36.851Z,99.90
2017-10-02T07:42:40.373Z,99.90
2017-10-02T07:43:42.882Z,99.90
2017-10-02T07:44:45.383Z,99.90
2017-10-02T07:45:48.850Z,99.90
2017-10-02T07:46:51.353Z,99.90
2017-10-02T07:47:54.291Z,99.90
2017-10-02T07:48:56.778Z,99.90
2017-10-02T07:50:00.638Z,99.90
2017-10-02T07:51:03.224Z,99.90
2017-10-02T07:52:05.819Z,99.90
2017-10-02T07:53:08.290Z,99.90
2017-10-02T07:54:11.624Z,99.90
2017-10-02T07:55:14.130Z,99.90
2017-10-02T07:56:17.375Z,99.90
2017-10-02T07:57:19.986Z,99.90
2017-10-02T07:58:22.473Z,99.90
2017-10-02T07:59:25.068Z,99.90
2017-10-02T08:00:27.687Z,99.90
2017-10-02T08:01:30.192Z,99.90
2017-10-02T08:02:32.686Z,99.90
2017-10-02T08:03:35.290Z,99.90
2017-10-02T08:04:37.780Z,99.90
2017-10-02T08:05:40.307Z,99.90
2017-10-02T08:06:44.017Z,99.90
2017-10-02T08:07:46.537Z,99.90
2017-10-02T08:08:49.021Z,99.90
2017-10-02T08:09:53.217Z,99.90
2017-10-02T08:10:55.723Z,99.90
2017-10-02T08:11:58.179Z,99.90
2017-10-02T08:13:00.699Z,99.90
2017-10-02T08:14:03.310Z,99.90
2017-10-02T08:15:05.836Z,99.90
2017-10-02T08:16:09.310Z,99.90
2017-10-02T08:17:11.784Z,99.90
2017-10-02T08:18:14.283Z,99.90
2017-10-02T08:19:17.579Z,99.90
2017-10-02T08:20:20.053Z,99.90
2017-10-02T08:21:22.997Z,99.90
2017-10-02T08:22:26.264Z,99.90
2017-10-02T08:23:28.930Z,99.90
2017-10-02T08:24:31.428Z,99.90
2017-10-02T08:25:34.689Z,99.90
2017-10-02T08:26:37.193Z,99.90
2017-10-02T08:27:39.856Z,99.90
2017-10-02T08:28:42.535Z,99.90
2017-10-02T08:29:45.041Z,99.90
2017-10-02T08:30:47.505Z,99.90
2017-10-02T08:31:50.044Z,99.90
2017-10-02T08:32:52.535Z,99.90
2017-10-02T08:33:55.084Z,99.90
2017-10-02T08:34:57.713Z,99.90
2017-10-02T08:36:00.962Z,99.90
2017-10-02T08:37:04.543Z,99.90
2017-10-02T08:38:08.542Z,99.90
2017-10-02T08:39:11.032Z,99.90
2017-10-02T08:40:14.289Z,99.90
2017-10-02T08:41:16.856Z,99.90
2017-10-02T08:42:19.359Z,99.90
2017-10-02T08:43:23.813Z,99.90
2017-10-02T08:44:26.353Z,99.90
2017-10-02T08:45:29.748Z,99.90
2017-10-02T08:46:32.318Z,99.90
2017-10-02T08:47:34.826Z,99.90
2017-10-02T08:48:37.319Z,99.90
2017-10-02T08:49:40.559Z,99.90
2017-10-02T08:50:43.293Z,99.90
2017-10-02T08:51:45.822Z,99.90
2017-10-02T08:52:49.143Z,99.90
2017-10-02T08:53:51.634Z,99.90
2017-10-02T08:54:54.114Z,99.90
2017-10-02T08:55:56.586Z,99.90
2017-10-02T08:56:59.091Z,99.90
2017-10-02T08:58:02.363Z,99.90
2017-10-02T08:59:05.618Z,99.90
2017-10-02T09:00:08.135Z,99.90
2017-10-02T09:01:10.606Z,99.90
2017-10-02T09:02:13.109Z,99.90
2017-10-02T09:03:15.595Z,99.90
2017-10-02T09:04:18.088Z,99.90
2017-10-02T09:05:21.357Z,99.90
2017-10-02T09:06:24.613Z,99.90
2017-10-02T09:07:27.095Z,99.90
2017-10-02T09:08:29.602Z,99.90
2017-10-02T09:09:32.095Z,99.90
2017-10-02T09:10:34.597Z,99.90
2017-10-02T09:11:37.929Z,99.90
2017-10-02T09:12:40.444Z,99.90
2017-10-02T09:13:42.913Z,99.90
2017-10-02T09:14:46.164Z,99.90
2017-10-02T09:15:48.666Z,99.90
2017-10-02T09:16:51.915Z,99.90
2017-10-02T09:17:54.399Z,99.90
2017-10-02T09:18:56.883Z,99.90
2017-10-02T09:20:00.308Z,99.90
2017-10-02T09:21:02.784Z,99.90
2017-10-02T09:22:05.268Z,99.90
2017-10-02T09:23:07.747Z,99.90
2017-10-02T09:24:10.227Z,99.90
2017-10-02T09:25:13.511Z,99.90
2017-10-02T09:26:16.050Z,99.90
2017-10-02T09:27:18.543Z,99.90
2017-10-02T09:28:21.793Z,99.90
2017-10-02T09:29:24.312Z,99.90
2017-10-02T09:30:26.879Z,99.90
2017-10-02T09:31:29.448Z,99.90
2017-10-02T09:32:31.944Z,99.90
2017-10-02T09:33:34.416Z,99.90
2017-10-02T09:34:36.883Z,99.90
2017-10-02T09:35:39.394Z,99.90
2017-10-02T09:36:41.915Z,99.90
2017-10-02T09:37:44.442Z,99.90
2017-10-02T09:38:47.101Z,99.90
2017-10-02T09:39:49.589Z,99.90
2017-10-02T09:40:52.099Z,99.90
2017-10-02T09:41:54.616Z,99.90
2017-10-02T09:42:57.092Z,99.90
2017-10-02T09:43:59.571Z,99.90
2017-10-02T09:45:02.057Z,99.90
2017-10-02T09:46:04.559Z,99.90
2017-10-02T09:47:07.653Z,99.90
2017-10-02T09:48:10.159Z,99.90
2017-10-02T09:49:12.686Z,99.90
2017-10-02T09:50:15.247Z,99.90
2017-10-02T09:51:17.771Z,99.30
2017-10-02T09:52:20.590Z,99.00
2017-10-02T09:53:23.073Z,99.40
2017-10-02T09:54:26.596Z,99.30
2017-10-02T09:55:29.091Z,98.80
2017-10-02T09:56:31.593Z,99.70
2017-10-02T09:57:34.106Z,99.50
2017-10-02T09:58:37.355Z,99.00
2017-10-02T09:59:39.878Z,99.00
2017-10-02T10:00:42.450Z,99.30
2017-10-02T10:01:44.999Z,98.10
2017-10-02T10:02:48.580Z,97.90
2017-10-02T10:03:51.871Z,97.40
2017-10-02T10:04:55.113Z,97.20
2017-10-02T10:05:57.659Z,97.20
2017-10-02T10:07:00.146Z,97.50
2017-10-02T10:08:02.633Z,96.90
2017-10-02T10:09:05.150Z,97.60
2017-10-02T10:10:07.636Z,99.00
2017-10-02T10:11:10.125Z,96.80
2017-10-02T10:12:12.690Z,97.10
2017-10-02T10:13:15.304Z,96.90
2017-10-02T10:14:17.842Z,96.60
2017-10-02T10:15:21.086Z,98.00
2017-10-02T10:16:23.609Z,98.00
2017-10-02T10:17:26.117Z,97.80
2017-10-02T10:18:28.621Z,97.10
2017-10-02T10:19:31.902Z,98.00
2017-10-02T10:20:35.417Z,97.50
2017-10-02T10:21:38.455Z,97.60
2017-10-02T10:22:42.542Z,98.00
2017-10-02T10:23:45.059Z,97.90
2017-10-02T10:24:47.575Z,97.00
2017-10-02T10:25:50.075Z,97.00
2017-10-02T10:26:53.326Z,95.40
2017-10-02T10:27:55.871Z,95.40
2017-10-02T10:28:58.407Z,95.00
2017-10-02T10:30:00.972Z,95.10
2017-10-02T10:31:03.476Z,95.00
2017-10-02T10:32:05.973Z,93.80
2017-10-02T10:33:09.255Z,92.60
2017-10-02T10:34:11.736Z,92.40
2017-10-02T10:35:15.627Z,93.00
2017-10-02T10:36:18.875Z,92.20
2017-10-02T10:37:21.512Z,92.20
2017-10-02T10:38:24.002Z,93.50
2017-10-02T10:39:26.518Z,92.80
2017-10-02T10:40:29.008Z,92.10
2017-10-02T10:41:31.568Z,92.00
2017-10-02T10:42:34.052Z,92.60
2017-10-02T10:43:36.606Z,92.70
2017-10-02T10:44:39.101Z,93.10
2017-10-02T10:45:41.671Z,91.90
2017-10-02T10:46:44.175Z,92.00
2017-10-02T10:47:47.486Z,92.60
2017-10-02T10:48:49.978Z,92.60
2017-10-02T10:49:52.563Z,93.20
2017-10-02T10:50:55.100Z,92.10
2017-10-02T10:51:57.678Z,92.70
2017-10-02T10:53:00.203Z,92.00
2017-10-02T10:54:02.850Z,91.20
2017-10-02T10:55:06.120Z,90.70
2017-10-02T10:56:09.036Z,90.70
2017-10-02T10:57:11.532Z,90.40
2017-10-02T10:58:14.129Z,90.00
2017-10-02T10:59:17.622Z,89.50
2017-10-02T11:00:20.530Z,89.00
2017-10-02T11:01:23.059Z,89.20
2017-10-02T11:02:25.546Z,88.00
2017-10-02T11:03:29.162Z,90.10
2017-10-02T11:04:31.691Z,90.10
2017-10-02T11:05:35.012Z,89.40
2017-10-02T11:06:37.574Z,89.40
2017-10-02T11:07:40.107Z,88.70
2017-10-02T11:08:43.823Z,90.10
2017-10-02T11:09:47.119Z,90.40
2017-10-02T11:10:49.612Z,90.40
2017-10-02T11:11:52.144Z,90.20
2017-10-02T11:12:55.449Z,90.80
2017-10-02T11:13:57.938Z,90.70
2017-10-02T11:15:00.433Z,90.90
2017-10-02T11:16:02.942Z,91.40
2017-10-02T11:17:05.427Z,91.50
2017-10-02T11:18:07.966Z,91.60
2017-10-02T11:19:10.447Z,91.40
2017-10-02T11:20:12.970Z,91.70
2017-10-02T11:21:16.258Z,90.90
2017-10-02T11:22:20.547Z,90.60
2017-10-02T11:23:23.055Z,90.50
2017-10-02T11:24:25.615Z,90.30
2017-10-02T11:25:28.149Z,90.30
2017-10-02T11:26:32.468Z,88.50
2017-10-02T11:27:35.959Z,86.60
2017-10-02T11:28:39.220Z,86.10
2017-10-02T11:29:41.708Z,85.90
2017-10-02T11:30:44.963Z,86.00
2017-10-02T11:31:47.583Z,85.90
2017-10-02T11:32:50.152Z,87.20
2017-10-02T11:33:52.672Z,86.50
2017-10-02T11:34:55.190Z,86.70
2017-10-02T11:35:57.664Z,87.10
2017-10-02T11:37:00.149Z,87.50
2017-10-02T11:38:02.871Z,87.40
2017-10-02T11:39:06.148Z,86.00
2017-10-02T11:40:08.820Z,86.00
2017-10-02T11:41:12.120Z,85.20
2017-10-02T11:42:14.611Z,85.10
2017-10-02T11:43:17.108Z,83.70
2017-10-02T11:44:20.434Z,83.60
2017-10-02T11:45:22.958Z,83.50
2017-10-02T11:46:25.469Z,82.90
2017-10-02T11:47:32.037Z,82.40
2017-10-02T11:48:34.650Z,82.10
2017-10-02T11:49:37.996Z,83.80
2017-10-02T11:50:40.510Z,83.10
2017-10-02T11:51:44.850Z,82.90
2017-10-02T11:52:47.353Z,82.70
2017-10-02T11:53:49.845Z,81.90
2017-10-02T11:54:52.560Z,81.50
2017-10-02T11:55:55.144Z,79.80
2017-10-02T11:56:57.800Z,80.30
2017-10-02T11:58:00.394Z,80.00
2017-10-02T11:59:02.895Z,80.40
2017-10-02T12:00:06.186Z,79.80
2017-10-02T12:01:09.523Z,80.20
2017-10-02T12:02:12.028Z,80.20
2017-10-02T12:03:15.316Z,81.30
2017-10-02T12:04:21.191Z,81.50
2017-10-02T12:05:24.606Z,80.00
2017-10-02T12:06:27.099Z,79.90
2017-10-02T12:07:29.902Z,79.50
2017-10-02T12:08:33.398Z,79.20
2017-10-02T12:09:36.073Z,78.70
2017-10-02T12:10:38.592Z,79.00
2017-10-02T12:11:41.123Z,76.80
2017-10-02T12:12:43.736Z,76.90
2017-10-02T12:13:47.020Z,76.40
2017-10-02T12:14:50.657Z,75.40
2017-10-02T12:15:53.267Z,75.30
2017-10-02T12:16:55.883Z,74.60
2017-10-02T12:17:59.139Z,74.00
2017-10-02T12:19:02.482Z,72.00
2017-10-02T12:20:05.021Z,71.70
2017-10-02T12:21:07.495Z,72.90
2017-10-02T12:22:10.153Z,69.60
2017-10-02T12:23:12.637Z,70.10
2017-10-02T12:24:15.329Z,70.20
2017-10-02T12:25:18.689Z,72.10
2017-10-02T12:26:21.171Z,70.30
2017-10-02T12:27:23.679Z,71.70
2017-10-02T12:28:26.938Z,73.70
2017-10-02T12:29:30.688Z,73.80
2017-10-02T12:30:33.183Z,72.70
2017-10-02T12:31:35.683Z,71.90
2017-10-02T12:32:38.948Z,72.40
2017-10-02T12:33:41.452Z,72.40
2017-10-02T12:34:43.951Z,70.70
2017-10-02T12:35:48.489Z,70.50
2017-10-02T12:36:51.213Z,70.60
2017-10-02T12:37:53.877Z,69.60
2017-10-02T12:38:56.389Z,71.30
2017-10-02T12:39:58.907Z,67.00
2017-10-02T12:41:01.376Z,67.00
2017-10-02T12:42:05.037Z,66.90
2017-10-02T12:43:07.635Z,67.60
2017-10-02T12:44:10.134Z,68.70
2017-10-02T12:45:12.642Z,69.20
2017-10-02T12:46:15.916Z,64.20
2017-10-02T12:47:19.172Z,67.10
2017-10-02T12:48:22.653Z,67.00
2017-10-02T12:49:25.182Z,65.50
2017-10-02T12:50:27.973Z,65.70
2017-10-02T12:51:30.477Z,65.50
2017-10-02T12:52:32.981Z,63.20
2017-10-02T12:53:35.474Z,64.10
2017-10-02T12:54:37.971Z,66.00
2017-10-02T12:55:40.475Z,65.50
2017-10-02T12:56:46.331Z,66.60
2017-10-02T12:57:48.843Z,66.00
2017-10-02T12:58:51.707Z,67.10
2017-10-02T12:59:54.340Z,66.90
2017-10-02T13:00:57.908Z,65.60
2017-10-02T13:02:01.354Z,66.20
2017-10-02T13:03:04.475Z,66.00
2017-10-02T13:04:07.716Z,62.00
2017-10-02T13:05:10.244Z,62.00
2017-10-02T13:06:12.731Z,62.90
2017-10-02T13:07:15.243Z,63.60
2017-10-02T13:08:18.575Z,63.10
2017-10-02T13:09:22.170Z,63.10
2017-10-02T13:10:24.657Z,62.40
2017-10-02T13:11:27.180Z,62.00
2017-10-02T13:12:29.827Z,62.90
2017-10-02T13:13:33.092Z,62.60
2017-10-02T13:14:35.603Z,62.50
2017-10-02T13:15:38.170Z,63.20
2017-10-02T13:16:40.659Z,64.30
2017-10-02T13:17:43.235Z,63.50
2017-10-02T13:18:45.731Z,63.80
2017-10-02T13:19:49.000Z,65.20
2017-10-02T13:20:51.490Z,65.00
2017-10-02T13:21:55.319Z,64.20
2017-10-02T13:22:57.877Z,64.50
2017-10-02T13:24:00.548Z,66.00
2017-10-02T13:25:03.042Z,65.30
2017-10-02T13:26:06.814Z,65.40
2017-10-02T13:27:09.308Z,65.90
2017-10-02T13:28:11.853Z,67.70
2017-10-02T13:29:14.358Z,66.80